Time;durP1;ratioP1;P1;durP2;ratioP2;P2;SDS_P1;SDS_P2;PMS_P1;PMS_P2;Temp;Humidity;BMP_temperature;BMP_pressure;BME280_temperature;BME280_humidity;BME280_pressure;Samples;Min_cycle;Max_cycle;Signal;HPM_P1;HPM_P2
2023/08/02 00:09:50;;;;;;;1999.90;999.90;;;;;;;;;;6686946;88;20754;-78
2023/08/02 00:19:51;;;;;;;1999.90;999.90;;;;;;;;;;6674078;88;20700;-79
2023/08/02 00:29:52;;;;;;;1999.90;999.90;;;;;;;;;;6678057;88;20193;-79
2023/08/02 00:39:53;;;;;;;1999.90;999.90;;;;;;;;;;6669482;89;20208;-79
2023/08/02 00:49:54;;;;;;;1999.90;999.90;;;;;;;;;;6671330;89;20183;-79
2023/08/02 00:59:55;;;;;;;1999.90;999.90;;;;;;;;;;6673835;89;20191;-79
2023/08/02 01:10:07;;;;;;;1999.90;999.90;;;;;;;;;;6675150;89;20208;-78
2023/08/02 01:20:08;;;;;;;1999.90;999.90;;;;;;;;;;6675681;88;20198;-79
2023/08/02 01:40:13;;;;;;;1999.90;999.90;;;;;;;;;;6744691;88;20765;-78
2023/08/02 01:50:14;;;;;;;1999.90;999.90;;;;;;;;;;6752567;88;20184;-79
2023/08/02 02:00:15;;;;;;;1999.90;999.90;;;;;;;;;;6749324;88;20591;-78
2023/08/02 02:10:16;;;;;;;1999.90;999.90;;;;;;;;;;6740471;88;20265;-78
2023/08/02 02:20:17;;;;;;;1999.90;999.90;;;;;;;;;;6739304;88;20214;-78
2023/08/02 02:30:18;;;;;;;1999.90;999.90;;;;;;;;;;6737967;88;20214;-78
2023/08/02 02:40:20;;;;;;;1999.90;999.90;;;;;;;;;;6738886;88;20238;-77
2023/08/02 02:50:21;;;;;;;1999.90;999.90;;;;;;;;;;6745203;88;20368;-78
2023/08/02 03:00:22;;;;;;;1999.90;999.90;;;;;;;;;;6746280;88;20197;-78
2023/08/02 03:10:22;;;;;;;1999.90;999.90;;;;;;;;;;6747180;88;20627;-78
2023/08/02 03:20:24;;;;;;;1999.90;999.90;;;;;;;;;;6746345;88;20666;-78
2023/08/02 03:30:25;;;;;;;1999.90;999.90;;;;;;;;;;6749919;88;20684;-78
2023/08/02 03:40:26;;;;;;;1999.90;999.90;;;;;;;;;;6747198;88;20190;-78
2023/08/02 03:50:27;;;;;;;1999.90;999.90;;;;;;;;;;6745688;88;20242;-78
2023/08/02 04:00:28;;;;;;;1999.90;999.90;;;;;;;;;;6743886;88;20747;-78
2023/08/02 04:10:29;;;;;;;1999.90;999.90;;;;;;;;;;6742497;88;20325;-77
2023/08/02 04:20:30;;;;;;;1999.90;999.90;;;;;;;;;;6741862;88;20174;-78
2023/08/02 04:30:31;;;;;;;1999.90;999.90;;;;;;;;;;6742637;88;20205;-77
2023/08/02 04:40:32;;;;;;;1999.90;999.90;;;;;;;;;;6745747;88;20695;-78
2023/08/02 04:50:33;;;;;;;1999.90;999.90;;;;;;;;;;6742528;88;20247;-78
2023/08/02 05:00:34;;;;;;;1999.90;999.90;;;;;;;;;;6743054;88;20227;-78
2023/08/02 05:10:38;;;;;;;1999.90;999.90;;;;;;;;;;6740966;88;20649;-77
2023/08/02 05:20:39;;;;;;;1999.90;999.90;;;;;;;;;;6737058;88;20184;-77
2023/08/02 05:30:40;;;;;;;1999.90;999.90;;;;;;;;;;6740822;88;20377;-77
2023/08/02 05:40:41;;;;;;;1999.90;999.90;;;;;;;;;;6741620;88;20703;-77
2023/08/02 05:50:42;;;;;;;1999.90;999.90;;;;;;;;;;6741514;88;20245;-77
2023/08/02 06:00:43;;;;;;;1999.90;999.90;;;;;;;;;;6739527;88;20225;-78
2023/08/02 06:10:44;;;;;;;1999.90;999.90;;;;;;;;;;6757189;87;20281;-78
2023/08/02 06:20:45;;;;;;;1999.90;999.90;;;;;;;;;;6741774;88;20189;-78
2023/08/02 06:30:46;;;;;;;1999.90;999.90;;;;;;;;;;6738285;88;20235;-78
2023/08/02 06:40:47;;;;;;;1999.90;999.90;;;;;;;;;;6738954;88;20327;-78
2023/08/02 06:50:48;;;;;;;1999.90;999.90;;;;;;;;;;6738088;88;20203;-78
2023/08/02 07:00:49;;;;;;;1999.90;999.90;;;;;;;;;;6736409;88;20197;-77
2023/08/02 07:10:50;;;;;;;1999.90;999.90;;;;;;;;;;6734663;88;20177;-78
2023/08/02 07:20:51;;;;;;;1999.90;999.90;;;;;;;;;;6741304;88;20324;-78
2023/08/02 07:30:52;;;;;;;1999.90;999.90;;;;;;;;;;6743037;88;20244;-78
2023/08/02 07:40:53;;;;;;;1999.90;999.90;;;;;;;;;;6714506;88;20692;-78
2023/08/02 07:50:54;;;;;;;1999.90;999.90;;;;;;;;;;6743883;88;20210;-77
2023/08/02 08:00:55;;;;;;;1999.90;999.90;;;;;;;;;;6744156;88;20830;-79
2023/08/02 08:10:56;;;;;;;1999.90;999.90;;;;;;;;;;6741953;88;20185;-78
2023/08/02 08:20:58;;;;;;;1999.90;999.90;;;;;;;;;;6738338;88;20191;-79
2023/08/02 08:31:00;;;;;;;1999.90;999.90;;;;;;;;;;6742307;88;20220;-79
2023/08/02 08:41:01;;;;;;;1999.90;999.90;;;;;;;;;;6736726;88;20200;-79
2023/08/02 08:51:02;;;;;;;1999.90;999.90;;;;;;;;;;6736233;88;20223;-77
2023/08/02 09:01:04;;;;;;;1999.90;999.90;;;;;;;;;;6737411;88;20709;-77
2023/08/02 09:11:05;;;;;;;1999.90;999.90;;;;;;;;;;6735530;88;20196;-77
2023/08/02 09:21:06;;;;;;;1999.90;999.90;;;;;;;;;;6739906;88;20226;-76
2023/08/02 09:31:14;;;;;;;1999.90;999.90;;;;;;;;;;6746852;88;20184;-77
2023/08/02 09:41:22;;;;;;;1999.90;999.90;;;;;;;;;;6740440;88;20698;-77
2023/08/02 09:51:38;;;;;;;1999.90;999.90;;;;;;;;;;6736240;88;20675;-78
2023/08/02 10:01:39;;;;;;;1999.90;999.90;;;;;;;;;;6737609;88;20324;-77
2023/08/02 10:12:03;;;;;;;1999.90;999.90;;;;;;;;;;6742379;88;20245;-78
2023/08/02 10:22:04;;;;;;;1999.90;999.90;;;;;;;;;;6731782;88;20571;-78
2023/08/02 10:32:17;;;;;;;1999.90;999.90;;;;;;;;;;6754211;88;20227;-77
2023/08/02 10:42:19;;;;;;;1999.90;999.90;;;;;;;;;;6742289;88;20251;-78
2023/08/02 10:52:23;;;;;;;1999.90;999.90;;;;;;;;;;6736027;88;20188;-78
2023/08/02 11:02:25;;;;;;;1999.90;999.90;;;;;;;;;;6732689;88;20212;-78
2023/08/02 11:12:28;;;;;;;1999.90;999.90;;;;;;;;;;6743311;88;20280;-78
2023/08/02 11:22:35;;;;;;;1999.90;999.90;;;;;;;;;;6742937;88;20369;-78
2023/08/02 11:32:46;;;;;;;1999.90;999.90;;;;;;;;;;6735000;88;20216;-78
2023/08/02 11:42:48;;;;;;;1999.90;999.90;;;;;;;;;;6732525;88;20656;-78
2023/08/02 11:52:49;;;;;;;1999.90;999.90;;;;;;;;;;6737006;88;20675;-78
2023/08/02 12:02:50;;;;;;;1999.90;999.90;;;;;;;;;;6737482;88;20235;-78
2023/08/02 12:12:51;;;;;;;1999.90;999.90;;;;;;;;;;6737529;88;20249;-77
2023/08/02 12:22:52;;;;;;;1999.90;999.90;;;;;;;;;;6734423;88;20192;-78
2023/08/02 12:32:53;;;;;;;1999.90;999.90;;;;;;;;;;6741282;88;20661;-78
2023/08/02 12:42:54;;;;;;;1999.90;999.90;;;;;;;;;;6736240;88;20273;-78
2023/08/02 12:52:55;;;;;;;1999.90;999.90;;;;;;;;;;6738531;88;20213;-78
2023/08/02 13:02:56;;;;;;;1999.90;999.90;;;;;;;;;;6742175;88;20714;-78
2023/08/02 13:12:57;;;;;;;1999.90;999.90;;;;;;;;;;6739520;88;20255;-77
2023/08/02 13:22:58;;;;;;;1999.90;999.90;;;;;;;;;;6742278;88;21379;-77
2023/08/02 14:05:25;;;;;;;1999.90;999.90;;;;;;;;;;6692918;88;20156;-78
2023/08/02 14:15:26;;;;;;;1999.90;999.90;;;;;;;;;;6646868;88;20226;-78
2023/08/02 14:25:27;;;;;;;1999.90;999.90;;;;;;;;;;6659006;88;20310;-78
2023/08/02 14:35:28;;;;;;;1999.90;999.90;;;;;;;;;;6680385;88;20239;-80
2023/08/02 14:45:29;;;;;;;1999.90;999.90;;;;;;;;;;6653214;88;20201;-80
2023/08/02 14:55:30;;;;;;;1999.90;999.90;;;;;;;;;;6701886;88;20913;-81
2023/08/02 15:05:31;;;;;;;1999.90;999.90;;;;;;;;;;6697477;88;20194;-80
2023/08/02 15:15:32;;;;;;;1999.90;999.90;;;;;;;;;;6658207;88;20264;-81
2023/08/02 15:25:35;;;;;;;1999.90;999.90;;;;;;;;;;6702589;88;20162;-80
2023/08/02 15:35:37;;;;;;;1999.90;999.90;;;;;;;;;;6685648;89;20895;-79
2023/08/02 15:45:38;;;;;;;1999.90;999.90;;;;;;;;;;6672896;88;20643;-80
2023/08/02 15:55:39;;;;;;;1999.90;999.90;;;;;;;;;;6693010;88;20185;-79
2023/08/02 16:05:40;;;;;;;1999.90;999.90;;;;;;;;;;6681903;88;20278;-80
2023/08/02 16:15:41;;;;;;;1999.90;999.90;;;;;;;;;;6696926;88;20759;-79
2023/08/02 16:25:42;;;;;;;1999.90;999.90;;;;;;;;;;6704019;88;20166;-80
2023/08/02 16:35:44;;;;;;;1999.90;999.90;;;;;;;;;;6674429;88;20198;-79
2023/08/02 16:45:45;;;;;;;1999.90;999.90;;;;;;;;;;6659172;88;20154;-80
2023/08/02 16:55:46;;;;;;;1999.90;999.90;;;;;;;;;;6705860;88;20797;-80
2023/08/02 17:05:47;;;;;;;1999.90;999.90;;;;;;;;;;6650351;88;20173;-81
2023/08/02 17:15:48;;;;;;;1999.90;999.90;;;;;;;;;;6675660;88;20211;-80
2023/08/02 17:25:49;;;;;;;1999.90;999.90;;;;;;;;;;6655236;88;20185;-80
2023/08/02 17:35:50;;;;;;;1999.90;999.90;;;;;;;;;;6660827;88;20281;-79
2023/08/02 17:45:51;;;;;;;1999.90;999.90;;;;;;;;;;6661243;88;20193;-79
2023/08/02 17:55:56;;;;;;;1999.90;999.90;;;;;;;;;;6648697;88;20206;-79
2023/08/02 18:05:57;;;;;;;1999.90;999.90;;;;;;;;;;6664447;88;20732;-79
2023/08/02 18:15:58;;;;;;;1999.90;999.90;;;;;;;;;;6651596;88;20336;-80
2023/08/02 18:25:59;;;;;;;1999.90;999.90;;;;;;;;;;6653675;88;20668;-80
2023/08/02 18:36:13;;;;;;;1999.90;999.90;;;;;;;;;;6678226;88;20243;-79
2023/08/02 18:46:15;;;;;;;1999.90;999.90;;;;;;;;;;6661835;88;20190;-79
2023/08/02 18:56:17;;;;;;;1999.90;999.90;;;;;;;;;;6645128;88;20273;-79
2023/08/02 19:06:18;;;;;;;1999.90;999.90;;;;;;;;;;6642575;88;20194;-79
2023/08/02 19:16:19;;;;;;;1999.90;999.90;;;;;;;;;;6680136;88;20201;-79
2023/08/02 19:26:24;;;;;;;1999.90;999.90;;;;;;;;;;6637588;88;20224;-79
2023/08/02 19:36:45;;;;;;;1999.90;999.90;;;;;;;;;;6656013;77;20345;-76
2023/08/02 19:46:46;;;;;;;1999.90;999.90;;;;;;;;;;6697631;88;20193;-76
2023/08/02 19:56:48;;;;;;;1999.90;999.90;;;;;;;;;;6671106;89;20256;-77
2023/08/02 20:06:49;;;;;;;1999.90;999.90;;;;;;;;;;6699455;88;20500;-79
2023/08/02 20:16:50;;;;;;;1999.90;999.90;;;;;;;;;;6698271;88;20207;-77
2023/08/02 20:26:52;;;;;;;1999.90;999.90;;;;;;;;;;6680631;88;20257;-77
2023/08/02 20:36:53;;;;;;;1999.90;999.90;;;;;;;;;;6666321;89;20585;-77
2023/08/02 20:46:54;;;;;;;1999.90;999.90;;;;;;;;;;6739675;88;20195;-78
2023/08/02 20:56:55;;;;;;;1999.90;999.90;;;;;;;;;;6668027;89;20230;-78
2023/08/02 21:06:58;;;;;;;1999.90;999.90;;;;;;;;;;6688759;88;20709;-79
2023/08/02 21:17:00;;;;;;;1999.90;999.90;;;;;;;;;;6721107;88;20642;-78
2023/08/02 21:27:05;;;;;;;1999.90;999.90;;;;;;;;;;6671013;88;20192;-79
2023/08/02 21:37:08;;;;;;;1999.90;999.90;;;;;;;;;;6680117;88;20215;-78
2023/08/02 21:47:09;;;;;;;1999.90;999.90;;;;;;;;;;6669987;89;20274;-79
2023/08/02 21:57:11;;;;;;;1999.90;999.90;;;;;;;;;;6681438;88;20615;-79
2023/08/02 22:07:15;;;;;;;1999.90;999.90;;;;;;;;;;6740754;88;20342;-79
2023/08/02 22:17:23;;;;;;;1999.90;999.90;;;;;;;;;;6679768;88;20249;-78
2023/08/02 22:27:26;;;;;;;1999.90;999.90;;;;;;;;;;6669406;89;20493;-78
2023/08/02 22:37:27;;;;;;;1999.90;999.90;;;;;;;;;;6666699;89;20234;-78
2023/08/02 22:47:29;;;;;;;1999.90;999.90;;;;;;;;;;6683880;88;20212;-79
2023/08/02 22:57:31;;;;;;;1999.90;999.90;;;;;;;;;;6682995;88;20211;-79
2023/08/02 23:07:33;;;;;;;1999.90;999.90;;;;;;;;;;6672661;89;20203;-79
2023/08/02 23:17:34;;;;;;;1999.90;999.90;;;;;;;;;;6700215;88;20193;-77
2023/08/02 23:27:35;;;;;;;1999.90;999.90;;;;;;;;;;6706831;88;20192;-76
2023/08/02 23:37:36;;;;;;;1999.90;999.90;;;;;;;;;;6703795;88;20196;-75
2023/08/02 23:47:37;;;;;;;1999.90;999.90;;;;;;;;;;6703684;88;20755;-76
2023/08/02 23:57:38;;;;;;;1999.90;999.90;;;;;;;;;;6693344;88;20799;-77
